sensor_id;sensor_type;location;lat;lon;timestamp;P1;durP1;ratioP1;P2;durP2;ratioP2
19492;SDS011;9887;54.366;10.958;2024-03-02T00:00:59;37.85;;;21.65;;
19492;SDS011;9887;54.366;10.958;2024-03-02T00:03:27;33.95;;;21.55;;
19492;SDS011;9887;54.366;10.958;2024-03-02T00:05:56;34.65;;;21.45;;
19492;SDS011;9887;54.366;10.958;2024-03-02T00:08:25;34.65;;;21.73;;
19492;SDS011;9887;54.366;10.958;2024-03-02T00:10:56;33.75;;;21.90;;
19492;SDS011;9887;54.366;10.958;2024-03-02T00:13:26;35.40;;;21.35;;
19492;SDS011;9887;54.366;10.958;2024-03-02T00:15:54;35.40;;;22.20;;
19492;SDS011;9887;54.366;10.958;2024-03-02T00:18:25;38.70;;;23.40;;
19492;SDS011;9887;54.366;10.958;2024-03-02T00:20:54;34.85;;;22.08;;
19492;SDS011;9887;54.366;10.958;2024-03-02T00:23:27;34.33;;;21.52;;
19492;SDS011;9887;54.366;10.958;2024-03-02T00:25:57;38.70;;;22.63;;
19492;SDS011;9887;54.366;10.958;2024-03-02T00:28:26;34.63;;;21.60;;
19492;SDS011;9887;54.366;10.958;2024-03-02T00:30:57;35.33;;;22.05;;
19492;SDS011;9887;54.366;10.958;2024-03-02T00:33:26;36.25;;;22.60;;
19492;SDS011;9887;54.366;10.958;2024-03-02T00:35:56;38.88;;;22.55;;
19492;SDS011;9887;54.366;10.958;2024-03-02T00:38:27;38.50;;;22.83;;
19492;SDS011;9887;54.366;10.958;2024-03-02T00:40:57;36.85;;;22.67;;
19492;SDS011;9887;54.366;10.958;2024-03-02T00:43:41;36.42;;;22.38;;
19492;SDS011;9887;54.366;10.958;2024-03-02T00:46:13;33.63;;;21.25;;
19492;SDS011;9887;54.366;10.958;2024-03-02T00:48:53;37.28;;;22.58;;
19492;SDS011;9887;54.366;10.958;2024-03-02T00:51:22;37.25;;;22.58;;
19492;SDS011;9887;54.366;10.958;2024-03-02T00:53:52;38.65;;;22.88;;
19492;SDS011;9887;54.366;10.958;2024-03-02T00:56:22;35.72;;;22.98;;
19492;SDS011;9887;54.366;10.958;2024-03-02T00:58:51;34.83;;;21.88;;
19492;SDS011;9887;54.366;10.958;2024-03-02T01:01:20;35.28;;;22.00;;
19492;SDS011;9887;54.366;10.958;2024-03-02T01:03:48;35.33;;;22.42;;
19492;SDS011;9887;54.366;10.958;2024-03-02T01:06:16;35.72;;;21.98;;
19492;SDS011;9887;54.366;10.958;2024-03-02T01:08:44;35.50;;;21.98;;
19492;SDS011;9887;54.366;10.958;2024-03-02T01:11:18;38.42;;;22.52;;
19492;SDS011;9887;54.366;10.958;2024-03-02T01:13:48;37.08;;;22.65;;
19492;SDS011;9887;54.366;10.958;2024-03-02T01:16:16;34.70;;;22.33;;
19492;SDS011;9887;54.366;10.958;2024-03-02T01:18:44;37.80;;;22.38;;
19492;SDS011;9887;54.366;10.958;2024-03-02T01:21:13;34.85;;;22.48;;
19492;SDS011;9887;54.366;10.958;2024-03-02T01:23:42;34.30;;;22.38;;
19492;SDS011;9887;54.366;10.958;2024-03-02T01:26:10;38.30;;;22.70;;
19492;SDS011;9887;54.366;10.958;2024-03-02T01:28:39;39.30;;;22.65;;
19492;SDS011;9887;54.366;10.958;2024-03-02T01:31:07;41.00;;;23.73;;
19492;SDS011;9887;54.366;10.958;2024-03-02T01:33:35;34.78;;;22.25;;
19492;SDS011;9887;54.366;10.958;2024-03-02T01:36:03;38.22;;;22.38;;
19492;SDS011;9887;54.366;10.958;2024-03-02T01:38:31;36.67;;;23.15;;
19492;SDS011;9887;54.366;10.958;2024-03-02T01:41:00;40.72;;;24.08;;
19492;SDS011;9887;54.366;10.958;2024-03-02T01:43:28;40.22;;;23.45;;
19492;SDS011;9887;54.366;10.958;2024-03-02T01:45:58;38.90;;;23.17;;
19492;SDS011;9887;54.366;10.958;2024-03-02T01:48:26;33.42;;;21.70;;
19492;SDS011;9887;54.366;10.958;2024-03-02T01:50:53;39.60;;;23.95;;
19492;SDS011;9887;54.366;10.958;2024-03-02T01:53:21;36.78;;;23.17;;
19492;SDS011;9887;54.366;10.958;2024-03-02T01:55:50;38.78;;;24.25;;
19492;SDS011;9887;54.366;10.958;2024-03-02T01:58:17;37.55;;;23.13;;
19492;SDS011;9887;54.366;10.958;2024-03-02T02:00:45;36.53;;;22.48;;
19492;SDS011;9887;54.366;10.958;2024-03-02T02:03:16;41.17;;;23.65;;
19492;SDS011;9887;54.366;10.958;2024-03-02T02:05:44;38.22;;;23.52;;
19492;SDS011;9887;54.366;10.958;2024-03-02T02:08:12;38.28;;;24.15;;
19492;SDS011;9887;54.366;10.958;2024-03-02T02:10:40;37.90;;;23.45;;
19492;SDS011;9887;54.366;10.958;2024-03-02T02:13:08;39.30;;;24.10;;
19492;SDS011;9887;54.366;10.958;2024-03-02T02:15:36;34.95;;;22.63;;
19492;SDS011;9887;54.366;10.958;2024-03-02T02:18:04;38.40;;;23.48;;
19492;SDS011;9887;54.366;10.958;2024-03-02T02:20:33;41.85;;;24.77;;
19492;SDS011;9887;54.366;10.958;2024-03-02T02:23:03;38.30;;;23.48;;
19492;SDS011;9887;54.366;10.958;2024-03-02T02:25:32;36.22;;;23.83;;
19492;SDS011;9887;54.366;10.958;2024-03-02T02:28:00;40.25;;;22.80;;
19492;SDS011;9887;54.366;10.958;2024-03-02T02:30:29;36.55;;;23.10;;
19492;SDS011;9887;54.366;10.958;2024-03-02T02:32:58;37.33;;;23.60;;
19492;SDS011;9887;54.366;10.958;2024-03-02T02:35:26;40.67;;;23.42;;
19492;SDS011;9887;54.366;10.958;2024-03-02T02:37:54;36.45;;;23.05;;
19492;SDS011;9887;54.366;10.958;2024-03-02T02:40:26;38.40;;;23.63;;
19492;SDS011;9887;54.366;10.958;2024-03-02T02:42:55;39.83;;;23.38;;
19492;SDS011;9887;54.366;10.958;2024-03-02T02:45:23;36.42;;;22.73;;
19492;SDS011;9887;54.366;10.958;2024-03-02T02:47:51;39.47;;;25.40;;
19492;SDS011;9887;54.366;10.958;2024-03-02T02:50:19;39.03;;;23.35;;
19492;SDS011;9887;54.366;10.958;2024-03-02T02:52:47;38.28;;;22.98;;
19492;SDS011;9887;54.366;10.958;2024-03-02T02:55:16;35.33;;;21.90;;
19492;SDS011;9887;54.366;10.958;2024-03-02T02:57:45;39.30;;;24.13;;
19492;SDS011;9887;54.366;10.958;2024-03-02T03:00:14;38.15;;;22.42;;
19492;SDS011;9887;54.366;10.958;2024-03-02T03:02:46;36.95;;;24.88;;
19492;SDS011;9887;54.366;10.958;2024-03-02T03:05:16;37.80;;;23.67;;
19492;SDS011;9887;54.366;10.958;2024-03-02T03:07:45;40.53;;;24.45;;
19492;SDS011;9887;54.366;10.958;2024-03-02T03:10:16;37.03;;;24.05;;
19492;SDS011;9887;54.366;10.958;2024-03-02T03:12:46;43.42;;;24.98;;
19492;SDS011;9887;54.366;10.958;2024-03-02T03:15:13;40.75;;;23.92;;
19492;SDS011;9887;54.366;10.958;2024-03-02T03:17:42;40.10;;;25.05;;
19492;SDS011;9887;54.366;10.958;2024-03-02T03:20:12;45.08;;;23.55;;
19492;SDS011;9887;54.366;10.958;2024-03-02T03:22:41;40.92;;;24.33;;
19492;SDS011;9887;54.366;10.958;2024-03-02T03:25:09;44.28;;;25.88;;
19492;SDS011;9887;54.366;10.958;2024-03-02T03:27:37;42.40;;;24.63;;
19492;SDS011;9887;54.366;10.958;2024-03-02T03:30:07;44.40;;;25.13;;
19492;SDS011;9887;54.366;10.958;2024-03-02T03:32:36;43.10;;;25.95;;
19492;SDS011;9887;54.366;10.958;2024-03-02T03:35:04;41.63;;;24.77;;
19492;SDS011;9887;54.366;10.958;2024-03-02T03:37:33;41.45;;;24.70;;
19492;SDS011;9887;54.366;10.958;2024-03-02T03:40:01;41.65;;;25.13;;
19492;SDS011;9887;54.366;10.958;2024-03-02T03:42:33;42.38;;;26.02;;
19492;SDS011;9887;54.366;10.958;2024-03-02T03:45:01;45.45;;;26.80;;
19492;SDS011;9887;54.366;10.958;2024-03-02T03:47:32;46.10;;;26.77;;
19492;SDS011;9887;54.366;10.958;2024-03-02T03:50:00;44.15;;;25.90;;
19492;SDS011;9887;54.366;10.958;2024-03-02T03:52:34;44.60;;;25.77;;
19492;SDS011;9887;54.366;10.958;2024-03-02T03:55:02;45.78;;;26.77;;
19492;SDS011;9887;54.366;10.958;2024-03-02T03:57:32;44.90;;;26.50;;
19492;SDS011;9887;54.366;10.958;2024-03-02T04:00:00;47.45;;;27.70;;
19492;SDS011;9887;54.366;10.958;2024-03-02T04:02:38;47.17;;;27.40;;
19492;SDS011;9887;54.366;10.958;2024-03-02T04:05:06;44.55;;;27.48;;
19492;SDS011;9887;54.366;10.958;2024-03-02T04:07:37;42.47;;;25.88;;
19492;SDS011;9887;54.366;10.958;2024-03-02T04:10:07;44.30;;;26.33;;
19492;SDS011;9887;54.366;10.958;2024-03-02T04:12:36;43.35;;;27.30;;
19492;SDS011;9887;54.366;10.958;2024-03-02T04:15:04;48.38;;;27.52;;
19492;SDS011;9887;54.366;10.958;2024-03-02T04:17:33;43.63;;;26.00;;
19492;SDS011;9887;54.366;10.958;2024-03-02T04:20:05;45.25;;;26.50;;
19492;SDS011;9887;54.366;10.958;2024-03-02T04:22:33;47.25;;;26.13;;
19492;SDS011;9887;54.366;10.958;2024-03-02T04:25:02;45.13;;;26.60;;
19492;SDS011;9887;54.366;10.958;2024-03-02T04:27:31;43.60;;;26.00;;
19492;SDS011;9887;54.366;10.958;2024-03-02T04:30:00;46.20;;;27.15;;
19492;SDS011;9887;54.366;10.958;2024-03-02T04:32:28;45.70;;;26.83;;
19492;SDS011;9887;54.366;10.958;2024-03-02T04:34:56;45.53;;;26.75;;
19492;SDS011;9887;54.366;10.958;2024-03-02T04:37:25;44.72;;;27.63;;
19492;SDS011;9887;54.366;10.958;2024-03-02T04:39:53;47.38;;;28.35;;
19492;SDS011;9887;54.366;10.958;2024-03-02T04:42:21;42.63;;;26.65;;
19492;SDS011;9887;54.366;10.958;2024-03-02T04:44:49;42.72;;;25.83;;
19492;SDS011;9887;54.366;10.958;2024-03-02T04:47:17;42.25;;;25.67;;
19492;SDS011;9887;54.366;10.958;2024-03-02T04:49:45;45.72;;;26.15;;
19492;SDS011;9887;54.366;10.958;2024-03-02T04:52:13;43.67;;;25.33;;
19492;SDS011;9887;54.366;10.958;2024-03-02T04:54:42;46.20;;;26.70;;
19492;SDS011;9887;54.366;10.958;2024-03-02T04:57:24;47.72;;;27.10;;
19492;SDS011;9887;54.366;10.958;2024-03-02T04:59:52;43.28;;;26.52;;
19492;SDS011;9887;54.366;10.958;2024-03-02T05:02:19;45.55;;;27.35;;
19492;SDS011;9887;54.366;10.958;2024-03-02T05:04:47;46.63;;;27.35;;
19492;SDS011;9887;54.366;10.958;2024-03-02T05:07:15;45.53;;;26.95;;
19492;SDS011;9887;54.366;10.958;2024-03-02T05:09:44;41.42;;;25.35;;
19492;SDS011;9887;54.366;10.958;2024-03-02T05:12:14;47.72;;;27.35;;
19492;SDS011;9887;54.366;10.958;2024-03-02T05:15:06;45.22;;;27.30;;
19492;SDS011;9887;54.366;10.958;2024-03-02T05:17:36;46.25;;;26.25;;
19492;SDS011;9887;54.366;10.958;2024-03-02T05:20:05;39.55;;;25.42;;
19492;SDS011;9887;54.366;10.958;2024-03-02T05:22:34;44.75;;;27.65;;
19492;SDS011;9887;54.366;10.958;2024-03-02T05:25:04;45.15;;;26.45;;
19492;SDS011;9887;54.366;10.958;2024-03-02T05:27:33;42.65;;;26.67;;
19492;SDS011;9887;54.366;10.958;2024-03-02T05:30:01;42.22;;;26.45;;
19492;SDS011;9887;54.366;10.958;2024-03-02T05:32:30;43.20;;;26.13;;
19492;SDS011;9887;54.366;10.958;2024-03-02T05:34:58;43.30;;;25.90;;
19492;SDS011;9887;54.366;10.958;2024-03-02T05:37:25;43.83;;;26.65;;
19492;SDS011;9887;54.366;10.958;2024-03-02T05:39:53;45.60;;;26.42;;
19492;SDS011;9887;54.366;10.958;2024-03-02T05:42:23;45.63;;;25.85;;
19492;SDS011;9887;54.366;10.958;2024-03-02T05:44:50;44.05;;;26.00;;
19492;SDS011;9887;54.366;10.958;2024-03-02T05:47:19;47.80;;;27.90;;
19492;SDS011;9887;54.366;10.958;2024-03-02T05:49:47;46.00;;;26.17;;
19492;SDS011;9887;54.366;10.958;2024-03-02T05:52:15;42.50;;;26.20;;
19492;SDS011;9887;54.366;10.958;2024-03-02T05:54:43;43.85;;;25.85;;
19492;SDS011;9887;54.366;10.958;2024-03-02T05:57:11;43.45;;;25.67;;
19492;SDS011;9887;54.366;10.958;2024-03-02T05:59:59;38.88;;;24.80;;
19492;SDS011;9887;54.366;10.958;2024-03-02T06:02:38;42.17;;;25.40;;
19492;SDS011;9887;54.366;10.958;2024-03-02T06:05:06;47.38;;;27.10;;
19492;SDS011;9887;54.366;10.958;2024-03-02T06:07:35;42.20;;;25.92;;
19492;SDS011;9887;54.366;10.958;2024-03-02T06:10:03;42.55;;;26.60;;
19492;SDS011;9887;54.366;10.958;2024-03-02T06:12:37;43.00;;;25.48;;
19492;SDS011;9887;54.366;10.958;2024-03-02T06:15:07;42.63;;;26.80;;
19492;SDS011;9887;54.366;10.958;2024-03-02T06:17:36;46.08;;;26.88;;
19492;SDS011;9887;54.366;10.958;2024-03-02T06:20:04;50.47;;;27.33;;
19492;SDS011;9887;54.366;10.958;2024-03-02T06:22:35;44.25;;;26.20;;
19492;SDS011;9887;54.366;10.958;2024-03-02T06:25:03;45.33;;;26.77;;
19492;SDS011;9887;54.366;10.958;2024-03-02T06:27:31;47.13;;;26.88;;
19492;SDS011;9887;54.366;10.958;2024-03-02T06:29:59;46.20;;;27.08;;
19492;SDS011;9887;54.366;10.958;2024-03-02T06:32:28;45.28;;;26.85;;
19492;SDS011;9887;54.366;10.958;2024-03-02T06:34:56;47.00;;;26.50;;
19492;SDS011;9887;54.366;10.958;2024-03-02T06:37:24;46.05;;;26.10;;
19492;SDS011;9887;54.366;10.958;2024-03-02T06:39:51;44.17;;;26.23;;
19492;SDS011;9887;54.366;10.958;2024-03-02T06:42:19;45.20;;;27.38;;
19492;SDS011;9887;54.366;10.958;2024-03-02T06:44:47;44.47;;;27.50;;
19492;SDS011;9887;54.366;10.958;2024-03-02T06:47:16;44.85;;;26.88;;
19492;SDS011;9887;54.366;10.958;2024-03-02T06:49:48;43.95;;;26.30;;
19492;SDS011;9887;54.366;10.958;2024-03-02T06:52:16;44.15;;;27.45;;
19492;SDS011;9887;54.366;10.958;2024-03-02T06:54:46;45.67;;;27.10;;
19492;SDS011;9887;54.366;10.958;2024-03-02T06:57:14;45.65;;;27.65;;
19492;SDS011;9887;54.366;10.958;2024-03-02T06:59:43;45.53;;;27.00;;
19492;SDS011;9887;54.366;10.958;2024-03-02T07:02:11;46.85;;;26.50;;
19492;SDS011;9887;54.366;10.958;2024-03-02T07:04:39;48.15;;;27.42;;
19492;SDS011;9887;54.366;10.958;2024-03-02T07:07:09;41.13;;;26.77;;
19492;SDS011;9887;54.366;10.958;2024-03-02T07:09:36;45.75;;;26.92;;
19492;SDS011;9887;54.366;10.958;2024-03-02T07:12:04;42.58;;;26.90;;
19492;SDS011;9887;54.366;10.958;2024-03-02T07:14:33;47.22;;;27.90;;
19492;SDS011;9887;54.366;10.958;2024-03-02T07:17:18;44.72;;;26.60;;
19492;SDS011;9887;54.366;10.958;2024-03-02T07:19:46;41.35;;;26.75;;
19492;SDS011;9887;54.366;10.958;2024-03-02T07:22:15;44.63;;;26.50;;
19492;SDS011;9887;54.366;10.958;2024-03-02T07:24:44;44.42;;;27.13;;
19492;SDS011;9887;54.366;10.958;2024-03-02T07:27:12;48.25;;;28.17;;
19492;SDS011;9887;54.366;10.958;2024-03-02T07:29:41;45.20;;;27.85;;
19492;SDS011;9887;54.366;10.958;2024-03-02T07:32:09;47.28;;;27.42;;
19492;SDS011;9887;54.366;10.958;2024-03-02T07:34:38;45.90;;;26.60;;
19492;SDS011;9887;54.366;10.958;2024-03-02T07:37:05;46.85;;;26.95;;
19492;SDS011;9887;54.366;10.958;2024-03-02T07:39:35;47.28;;;27.33;;
19492;SDS011;9887;54.366;10.958;2024-03-02T07:42:03;46.20;;;27.92;;
19492;SDS011;9887;54.366;10.958;2024-03-02T07:44:32;47.05;;;26.73;;
19492;SDS011;9887;54.366;10.958;2024-03-02T07:47:00;43.15;;;26.20;;
19492;SDS011;9887;54.366;10.958;2024-03-02T07:49:28;45.05;;;25.52;;
19492;SDS011;9887;54.366;10.958;2024-03-02T07:51:56;43.75;;;26.90;;
19492;SDS011;9887;54.366;10.958;2024-03-02T07:54:25;46.40;;;27.52;;
19492;SDS011;9887;54.366;10.958;2024-03-02T07:56:54;44.22;;;26.70;;
19492;SDS011;9887;54.366;10.958;2024-03-02T07:59:22;46.65;;;26.40;;
19492;SDS011;9887;54.366;10.958;2024-03-02T08:01:50;45.65;;;26.05;;
19492;SDS011;9887;54.366;10.958;2024-03-02T08:04:18;44.33;;;26.38;;
19492;SDS011;9887;54.366;10.958;2024-03-02T08:06:46;46.58;;;26.88;;
19492;SDS011;9887;54.366;10.958;2024-03-02T08:09:14;50.15;;;28.50;;
19492;SDS011;9887;54.366;10.958;2024-03-02T08:11:41;40.53;;;25.52;;
19492;SDS011;9887;54.366;10.958;2024-03-02T08:14:11;46.20;;;27.08;;
19492;SDS011;9887;54.366;10.958;2024-03-02T08:16:38;43.42;;;27.58;;
19492;SDS011;9887;54.366;10.958;2024-03-02T08:19:07;45.35;;;26.48;;
19492;SDS011;9887;54.366;10.958;2024-03-02T08:21:36;42.92;;;25.63;;
19492;SDS011;9887;54.366;10.958;2024-03-02T08:24:04;44.33;;;25.33;;
19492;SDS011;9887;54.366;10.958;2024-03-02T08:26:32;39.97;;;24.92;;
19492;SDS011;9887;54.366;10.958;2024-03-02T08:29:01;47.25;;;26.70;;
19492;SDS011;9887;54.366;10.958;2024-03-02T08:31:31;45.72;;;27.23;;
19492;SDS011;9887;54.366;10.958;2024-03-02T08:33:59;45.42;;;27.70;;
19492;SDS011;9887;54.366;10.958;2024-03-02T08:36:27;45.90;;;28.13;;
19492;SDS011;9887;54.366;10.958;2024-03-02T08:38:55;46.03;;;27.27;;
19492;SDS011;9887;54.366;10.958;2024-03-02T08:41:22;43.40;;;25.67;;
19492;SDS011;9887;54.366;10.958;2024-03-02T08:43:50;44.80;;;26.52;;
19492;SDS011;9887;54.366;10.958;2024-03-02T08:46:18;42.45;;;25.05;;
19492;SDS011;9887;54.366;10.958;2024-03-02T08:48:47;40.25;;;25.58;;
19492;SDS011;9887;54.366;10.958;2024-03-02T08:51:15;42.50;;;24.23;;
19492;SDS011;9887;54.366;10.958;2024-03-02T08:53:43;43.22;;;25.50;;
19492;SDS011;9887;54.366;10.958;2024-03-02T08:56:11;45.80;;;26.38;;
19492;SDS011;9887;54.366;10.958;2024-03-02T08:58:39;44.47;;;26.83;;
19492;SDS011;9887;54.366;10.958;2024-03-02T09:01:07;46.10;;;27.35;;
19492;SDS011;9887;54.366;10.958;2024-03-02T09:03:35;46.25;;;26.27;;
19492;SDS011;9887;54.366;10.958;2024-03-02T09:06:05;40.00;;;25.83;;
19492;SDS011;9887;54.366;10.958;2024-03-02T09:08:33;40.97;;;26.52;;
19492;SDS011;9887;54.366;10.958;2024-03-02T09:11:02;45.38;;;26.38;;
19492;SDS011;9887;54.366;10.958;2024-03-02T09:13:31;47.47;;;27.30;;
19492;SDS011;9887;54.366;10.958;2024-03-02T09:15:59;40.90;;;26.00;;
19492;SDS011;9887;54.366;10.958;2024-03-02T09:18:27;45.47;;;26.60;;
19492;SDS011;9887;54.366;10.958;2024-03-02T09:20:55;44.10;;;26.80;;
19492;SDS011;9887;54.366;10.958;2024-03-02T09:23:24;46.22;;;27.50;;
19492;SDS011;9887;54.366;10.958;2024-03-02T09:25:52;49.03;;;28.13;;
19492;SDS011;9887;54.366;10.958;2024-03-02T09:28:20;49.47;;;29.45;;
19492;SDS011;9887;54.366;10.958;2024-03-02T09:30:48;50.13;;;28.52;;
19492;SDS011;9887;54.366;10.958;2024-03-02T09:33:15;42.53;;;27.17;;
19492;SDS011;9887;54.366;10.958;2024-03-02T09:35:43;46.55;;;28.15;;
19492;SDS011;9887;54.366;10.958;2024-03-02T09:38:11;46.00;;;27.63;;
19492;SDS011;9887;54.366;10.958;2024-03-02T09:40:41;48.63;;;28.63;;
19492;SDS011;9887;54.366;10.958;2024-03-02T09:43:09;47.65;;;27.70;;
19492;SDS011;9887;54.366;10.958;2024-03-02T09:45:37;50.05;;;29.38;;
19492;SDS011;9887;54.366;10.958;2024-03-02T09:48:06;43.67;;;27.88;;
19492;SDS011;9887;54.366;10.958;2024-03-02T09:50:34;47.28;;;27.98;;
19492;SDS011;9887;54.366;10.958;2024-03-02T09:53:02;42.35;;;26.52;;
19492;SDS011;9887;54.366;10.958;2024-03-02T09:55:31;42.33;;;26.85;;
19492;SDS011;9887;54.366;10.958;2024-03-02T09:58:00;50.65;;;30.27;;
19492;SDS011;9887;54.366;10.958;2024-03-02T10:00:28;53.55;;;29.95;;
19492;SDS011;9887;54.366;10.958;2024-03-02T10:02:56;54.72;;;30.95;;
19492;SDS011;9887;54.366;10.958;2024-03-02T10:05:25;50.08;;;29.75;;
19492;SDS011;9887;54.366;10.958;2024-03-02T10:08:00;43.47;;;26.75;;
19492;SDS011;9887;54.366;10.958;2024-03-02T10:10:36;49.55;;;28.20;;
19492;SDS011;9887;54.366;10.958;2024-03-02T10:13:08;46.67;;;28.50;;
19492;SDS011;9887;54.366;10.958;2024-03-02T10:15:37;45.10;;;27.30;;
19492;SDS011;9887;54.366;10.958;2024-03-02T10:18:08;46.22;;;27.17;;
19492;SDS011;9887;54.366;10.958;2024-03-02T10:20:38;49.05;;;29.80;;
19492;SDS011;9887;54.366;10.958;2024-03-02T10:23:09;51.78;;;27.92;;
19492;SDS011;9887;54.366;10.958;2024-03-02T10:25:38;48.03;;;28.13;;
19492;SDS011;9887;54.366;10.958;2024-03-02T10:28:21;44.42;;;27.40;;
19492;SDS011;9887;54.366;10.958;2024-03-02T10:30:49;47.25;;;27.42;;
19492;SDS011;9887;54.366;10.958;2024-03-02T10:33:18;48.95;;;27.88;;
19492;SDS011;9887;54.366;10.958;2024-03-02T10:35:47;47.30;;;28.45;;
19492;SDS011;9887;54.366;10.958;2024-03-02T10:38:17;42.50;;;27.58;;
19492;SDS011;9887;54.366;10.958;2024-03-02T10:40:46;48.33;;;27.90;;
19492;SDS011;9887;54.366;10.958;2024-03-02T10:43:14;48.78;;;28.25;;
19492;SDS011;9887;54.366;10.958;2024-03-02T10:45:45;41.25;;;27.67;;
19492;SDS011;9887;54.366;10.958;2024-03-02T10:48:17;44.65;;;26.40;;
19492;SDS011;9887;54.366;10.958;2024-03-02T10:50:44;44.58;;;27.63;;
19492;SDS011;9887;54.366;10.958;2024-03-02T10:53:12;46.60;;;26.75;;
19492;SDS011;9887;54.366;10.958;2024-03-02T10:55:40;43.72;;;26.85;;
19492;SDS011;9887;54.366;10.958;2024-03-02T10:58:08;41.47;;;25.67;;
19492;SDS011;9887;54.366;10.958;2024-03-02T11:00:41;44.10;;;27.65;;
19492;SDS011;9887;54.366;10.958;2024-03-02T11:03:13;41.80;;;26.83;;
19492;SDS011;9887;54.366;10.958;2024-03-02T11:05:43;42.17;;;26.30;;
19492;SDS011;9887;54.366;10.958;2024-03-02T11:08:12;43.65;;;25.85;;
19492;SDS011;9887;54.366;10.958;2024-03-02T11:10:45;42.13;;;25.30;;
19492;SDS011;9887;54.366;10.958;2024-03-02T11:13:20;38.72;;;24.45;;
19492;SDS011;9887;54.366;10.958;2024-03-02T11:15:52;39.53;;;25.70;;
19492;SDS011;9887;54.366;10.958;2024-03-02T11:18:28;40.33;;;25.05;;
19492;SDS011;9887;54.366;10.958;2024-03-02T11:20:57;40.13;;;24.50;;
19492;SDS011;9887;54.366;10.958;2024-03-02T11:23:31;41.70;;;26.13;;
19492;SDS011;9887;54.366;10.958;2024-03-02T11:28:46;41.90;;;25.00;;
19492;SDS011;9887;54.366;10.958;2024-03-02T11:31:14;39.80;;;24.88;;
19492;SDS011;9887;54.366;10.958;2024-03-02T11:33:43;40.75;;;25.02;;
19492;SDS011;9887;54.366;10.958;2024-03-02T11:36:11;37.60;;;23.42;;
19492;SDS011;9887;54.366;10.958;2024-03-02T11:38:39;36.90;;;23.70;;
19492;SDS011;9887;54.366;10.958;2024-03-02T11:41:11;38.92;;;22.80;;
19492;SDS011;9887;54.366;10.958;2024-03-02T11:43:40;34.72;;;23.50;;
19492;SDS011;9887;54.366;10.958;2024-03-02T11:46:10;37.00;;;23.90;;
19492;SDS011;9887;54.366;10.958;2024-03-02T11:48:39;37.30;;;23.42;;
19492;SDS011;9887;54.366;10.958;2024-03-02T11:51:08;36.42;;;23.05;;
19492;SDS011;9887;54.366;10.958;2024-03-02T11:53:38;38.63;;;24.40;;
19492;SDS011;9887;54.366;10.958;2024-03-02T11:56:07;39.47;;;24.73;;
19492;SDS011;9887;54.366;10.958;2024-03-02T11:58:38;37.45;;;24.95;;
19492;SDS011;9887;54.366;10.958;2024-03-02T12:01:07;39.28;;;25.33;;
19492;SDS011;9887;54.366;10.958;2024-03-02T12:03:36;38.00;;;25.75;;
19492;SDS011;9887;54.366;10.958;2024-03-02T12:06:05;39.40;;;25.30;;
19492;SDS011;9887;54.366;10.958;2024-03-02T12:08:35;39.80;;;25.15;;
19492;SDS011;9887;54.366;10.958;2024-03-02T12:11:04;40.40;;;26.45;;
19492;SDS011;9887;54.366;10.958;2024-03-02T12:13:33;42.90;;;26.33;;
19492;SDS011;9887;54.366;10.958;2024-03-02T12:16:01;36.90;;;24.48;;
19492;SDS011;9887;54.366;10.958;2024-03-02T12:18:29;41.30;;;26.50;;
19492;SDS011;9887;54.366;10.958;2024-03-02T12:20:57;44.08;;;26.20;;
19492;SDS011;9887;54.366;10.958;2024-03-02T12:23:25;39.78;;;25.42;;
19492;SDS011;9887;54.366;10.958;2024-03-02T12:25:55;38.60;;;24.50;;
19492;SDS011;9887;54.366;10.958;2024-03-02T12:28:23;39.40;;;26.23;;
19492;SDS011;9887;54.366;10.958;2024-03-02T12:30:51;40.60;;;25.63;;
19492;SDS011;9887;54.366;10.958;2024-03-02T12:33:19;36.28;;;23.88;;
19492;SDS011;9887;54.366;10.958;2024-03-02T12:35:48;36.15;;;24.27;;
19492;SDS011;9887;54.366;10.958;2024-03-02T12:38:16;38.50;;;23.92;;
19492;SDS011;9887;54.366;10.958;2024-03-02T12:40:44;36.83;;;23.02;;
19492;SDS011;9887;54.366;10.958;2024-03-02T12:43:16;36.85;;;23.25;;
19492;SDS011;9887;54.366;10.958;2024-03-02T12:45:44;35.45;;;21.95;;
19492;SDS011;9887;54.366;10.958;2024-03-02T12:48:12;34.88;;;22.23;;
19492;SDS011;9887;54.366;10.958;2024-03-02T12:50:41;34.10;;;22.83;;
19492;SDS011;9887;54.366;10.958;2024-03-02T12:53:13;35.03;;;22.98;;
19492;SDS011;9887;54.366;10.958;2024-03-02T12:55:43;34.53;;;22.27;;
19492;SDS011;9887;54.366;10.958;2024-03-02T12:58:18;35.83;;;22.52;;
19492;SDS011;9887;54.366;10.958;2024-03-02T13:00:47;34.55;;;23.42;;
19492;SDS011;9887;54.366;10.958;2024-03-02T13:03:17;34.60;;;22.65;;
19492;SDS011;9887;54.366;10.958;2024-03-02T13:05:50;33.95;;;22.95;;
19492;SDS011;9887;54.366;10.958;2024-03-02T13:08:18;36.53;;;24.45;;
19492;SDS011;9887;54.366;10.958;2024-03-02T13:10:46;37.20;;;24.65;;
19492;SDS011;9887;54.366;10.958;2024-03-02T13:13:14;35.95;;;24.98;;
19492;SDS011;9887;54.366;10.958;2024-03-02T13:15:43;38.17;;;25.15;;
19492;SDS011;9887;54.366;10.958;2024-03-02T13:18:13;37.40;;;24.58;;
19492;SDS011;9887;54.366;10.958;2024-03-02T13:20:41;35.55;;;25.20;;
19492;SDS011;9887;54.366;10.958;2024-03-02T13:23:09;35.53;;;24.98;;
19492;SDS011;9887;54.366;10.958;2024-03-02T13:25:37;41.58;;;25.95;;
19492;SDS011;9887;54.366;10.958;2024-03-02T13:28:05;42.30;;;25.60;;
19492;SDS011;9887;54.366;10.958;2024-03-02T13:30:35;35.53;;;24.30;;
19492;SDS011;9887;54.366;10.958;2024-03-02T13:33:05;35.25;;;24.00;;
19492;SDS011;9887;54.366;10.958;2024-03-02T13:35:33;38.75;;;25.08;;
19492;SDS011;9887;54.366;10.958;2024-03-02T13:38:01;33.95;;;23.83;;
19492;SDS011;9887;54.366;10.958;2024-03-02T13:40:29;35.75;;;24.98;;
19492;SDS011;9887;54.366;10.958;2024-03-02T13:43:01;37.83;;;24.55;;
19492;SDS011;9887;54.366;10.958;2024-03-02T13:45:30;34.88;;;23.27;;
19492;SDS011;9887;54.366;10.958;2024-03-02T13:47:58;36.88;;;24.10;;
19492;SDS011;9887;54.366;10.958;2024-03-02T13:50:29;36.42;;;24.08;;
19492;SDS011;9887;54.366;10.958;2024-03-02T13:52:57;35.97;;;24.20;;
19492;SDS011;9887;54.366;10.958;2024-03-02T13:55:25;30.58;;;22.52;;
19492;SDS011;9887;54.366;10.958;2024-03-02T13:57:52;35.70;;;23.00;;
19492;SDS011;9887;54.366;10.958;2024-03-02T14:00:20;34.05;;;23.23;;
19492;SDS011;9887;54.366;10.958;2024-03-02T14:02:48;33.10;;;22.60;;
19492;SDS011;9887;54.366;10.958;2024-03-02T14:05:17;37.03;;;23.50;;
19492;SDS011;9887;54.366;10.958;2024-03-02T14:07:47;35.70;;;22.88;;
19492;SDS011;9887;54.366;10.958;2024-03-02T14:10:14;34.20;;;23.02;;
19492;SDS011;9887;54.366;10.958;2024-03-02T14:12:44;35.75;;;23.77;;
19492;SDS011;9887;54.366;10.958;2024-03-02T14:15:12;36.83;;;22.08;;
19492;SDS011;9887;54.366;10.958;2024-03-02T14:17:40;35.75;;;23.08;;
19492;SDS011;9887;54.366;10.958;2024-03-02T14:20:09;33.63;;;22.17;;
19492;SDS011;9887;54.366;10.958;2024-03-02T14:22:39;32.83;;;22.42;;
19492;SDS011;9887;54.366;10.958;2024-03-02T14:25:09;36.78;;;23.02;;
19492;SDS011;9887;54.366;10.958;2024-03-02T14:27:37;36.42;;;23.92;;
19492;SDS011;9887;54.366;10.958;2024-03-02T14:30:09;38.58;;;23.15;;
19492;SDS011;9887;54.366;10.958;2024-03-02T14:32:38;33.90;;;22.55;;
19492;SDS011;9887;54.366;10.958;2024-03-02T14:35:06;37.83;;;23.92;;